sensor_id;sensor_type;location;lat;lon;timestamp;pressure;altitude;pressure_sealevel;temperature;humidity
80335;BME280;69653;52.674;13.574;2023-04-24T11:59:44;99397.66;;;20.72;43.67
80335;BME280;69653;52.674;13.574;2023-04-24T12:02:19;99405.19;;;20.71;43.65
80335;BME280;69653;52.674;13.574;2023-04-24T12:04:45;99412.72;;;20.78;43.35
80335;BME280;69653;52.674;13.574;2023-04-24T12:07:10;99416.69;;;20.77;43.49
80335;BME280;69653;52.674;13.574;2023-04-24T12:09:48;99427.41;;;20.78;43.40
80335;BME280;69653;52.674;13.574;2023-04-24T12:12:16;99439.34;;;20.75;43.50
80335;BME280;69653;52.674;13.574;2023-04-24T12:14:47;99440.13;;;20.76;43.53
80335;BME280;69653;52.674;13.574;2023-04-24T12:17:13;99450.44;;;20.72;43.55
80335;BME280;69653;52.674;13.574;2023-04-24T12:19:45;99442.09;;;20.68;43.93
80335;BME280;69653;52.674;13.574;2023-04-24T12:22:10;99440.91;;;20.69;43.87
80335;BME280;69653;52.674;13.574;2023-04-24T12:24:55;99429.00;;;20.69;44.08
80335;BME280;69653;52.674;13.574;2023-04-24T12:27:21;99424.63;;;20.82;43.74
80335;BME280;69653;52.674;13.574;2023-04-24T12:29:55;99417.50;;;20.81;43.76
80335;BME280;69653;52.674;13.574;2023-04-24T12:32:21;99414.72;;;20.77;43.74
80335;BME280;69653;52.674;13.574;2023-04-24T12:34:46;99410.38;;;20.73;43.97
80335;BME280;69653;52.674;13.574;2023-04-24T12:37:12;99396.84;;;20.75;44.11
80335;BME280;69653;52.674;13.574;2023-04-24T12:39:37;99395.25;;;20.74;44.17
80335;BME280;69653;52.674;13.574;2023-04-24T12:42:02;99393.28;;;20.74;44.20
80335;BME280;69653;52.674;13.574;2023-04-24T12:44:32;99394.47;;;20.77;44.47
80335;BME280;69653;52.674;13.574;2023-04-24T12:46:59;99385.38;;;20.76;44.19
80335;BME280;69653;52.674;13.574;2023-04-24T12:49:25;99385.75;;;20.78;44.26
80335;BME280;69653;52.674;13.574;2023-04-24T12:51:50;99375.44;;;20.79;44.36
80335;BME280;69653;52.674;13.574;2023-04-24T12:54:16;99369.88;;;20.79;44.27
80335;BME280;69653;52.674;13.574;2023-04-24T12:56:41;99367.09;;;20.79;44.20
80335;BME280;69653;52.674;13.574;2023-04-24T12:59:06;99363.13;;;20.76;44.31
80335;BME280;69653;52.674;13.574;2023-04-24T13:01:32;99367.91;;;20.76;44.28
80335;BME280;69653;52.674;13.574;2023-04-24T13:03:57;99368.69;;;20.76;44.21
80335;BME280;69653;52.674;13.574;2023-04-24T13:06:22;99364.69;;;20.77;44.37
80335;BME280;69653;52.674;13.574;2023-04-24T13:08:47;99352.78;;;20.73;44.23
80335;BME280;69653;52.674;13.574;2023-04-24T13:11:13;99342.47;;;20.74;44.41
80335;BME280;69653;52.674;13.574;2023-04-24T13:13:39;99336.91;;;20.77;44.34
80335;BME280;69653;52.674;13.574;2023-04-24T13:16:04;99329.81;;;20.76;44.26
80335;BME280;69653;52.674;13.574;2023-04-24T13:18:30;99335.34;;;20.76;44.36
80335;BME280;69653;52.674;13.574;2023-04-24T13:20:55;99341.69;;;20.77;44.17
80335;BME280;69653;52.674;13.574;2023-04-24T13:23:21;99362.34;;;20.76;44.12
80335;BME280;69653;52.674;13.574;2023-04-24T13:25:47;99363.53;;;20.75;43.90
80335;BME280;69653;52.674;13.574;2023-04-24T13:28:13;99360.38;;;20.73;43.65
80335;BME280;69653;52.674;13.574;2023-04-24T13:30:38;99354.41;;;20.71;43.67
80335;BME280;69653;52.674;13.574;2023-04-24T13:33:03;99374.63;;;20.71;43.53
80335;BME280;69653;52.674;13.574;2023-04-24T13:35:29;99349.25;;;20.73;43.53
80335;BME280;69653;52.674;13.574;2023-04-24T13:37:54;99358.34;;;20.73;43.46
80335;BME280;69653;52.674;13.574;2023-04-24T13:40:19;99359.94;;;20.74;43.39
80335;BME280;69653;52.674;13.574;2023-04-24T13:42:45;99360.75;;;20.75;43.42
80335;BME280;69653;52.674;13.574;2023-04-24T13:45:10;99356.38;;;20.74;42.98
80335;BME280;69653;52.674;13.574;2023-04-24T13:47:36;99352.41;;;20.71;42.82
80335;BME280;69653;52.674;13.574;2023-04-24T13:50:01;99362.34;;;20.72;42.87
80335;BME280;69653;52.674;13.574;2023-04-24T13:52:27;99350.44;;;20.72;42.95
80335;BME280;69653;52.674;13.574;2023-04-24T13:54:52;99347.25;;;20.70;43.00
80335;BME280;69653;52.674;13.574;2023-04-24T13:57:17;99365.91;;;20.69;43.04
80335;BME280;69653;52.674;13.574;2023-04-24T14:22:36;99323.50;;;19.33;40.77
80335;BME280;69653;52.674;13.574;2023-04-24T14:25:13;99338.31;;;19.62;37.81
80335;BME280;69653;52.674;13.574;2023-04-24T14:27:43;99320.13;;;19.68;38.39
80335;BME280;69653;52.674;13.574;2023-04-24T14:30:23;99329.31;;;19.97;38.31
80335;BME280;69653;52.674;13.574;2023-04-24T14:32:59;99317.78;;;19.88;37.37
80335;BME280;69653;52.674;13.574;2023-04-24T14:35:34;99339.06;;;19.52;36.02
80335;BME280;69653;52.674;13.574;2023-04-24T14:38:10;99322.13;;;18.99;36.34
80335;BME280;69653;52.674;13.574;2023-04-24T14:40:40;99304.81;;;18.10;36.71
80335;BME280;69653;52.674;13.574;2023-04-24T14:43:07;99330.59;;;18.21;37.03
80335;BME280;69653;52.674;13.574;2023-04-24T14:45:38;99317.19;;;18.23;35.87
80335;BME280;69653;52.674;13.574;2023-04-24T14:48:07;99316.50;;;17.93;33.96
80335;BME280;69653;52.674;13.574;2023-04-24T14:50:33;99346.88;;;17.89;33.92
80335;BME280;69653;52.674;13.574;2023-04-24T14:53:00;99324.09;;;18.03;34.34
80335;BME280;69653;52.674;13.574;2023-04-24T14:55:29;99316.94;;;17.99;34.90
80335;BME280;69653;52.674;13.574;2023-04-24T14:57:57;99303.31;;;18.16;33.41
80335;BME280;69653;52.674;13.574;2023-04-24T15:00:30;99340.97;;;18.31;32.25
80335;BME280;69653;52.674;13.574;2023-04-24T15:03:10;99316.72;;;18.18;31.91
80335;BME280;69653;52.674;13.574;2023-04-24T15:05:36;99301.63;;;18.08;31.96
80335;BME280;69653;52.674;13.574;2023-04-24T15:08:16;99338.88;;;17.81;32.47
80335;BME280;69653;52.674;13.574;2023-04-24T15:10:48;99347.09;;;17.14;33.44
80335;BME280;69653;52.674;13.574;2023-04-24T15:13:19;99324.47;;;17.05;32.99
80335;BME280;69653;52.674;13.574;2023-04-24T15:15:46;99329.59;;;17.03;33.78
80335;BME280;69653;52.674;13.574;2023-04-24T15:18:13;99330.22;;;17.19;33.87
80335;BME280;69653;52.674;13.574;2023-04-24T15:20:40;99345.94;;;17.15;34.10
80335;BME280;69653;52.674;13.574;2023-04-24T15:23:09;99355.16;;;17.26;33.81
80335;BME280;69653;52.674;13.574;2023-04-24T15:26:02;99343.00;;;17.34;34.07
80335;BME280;69653;52.674;13.574;2023-04-24T15:28:34;99342.59;;;17.32;33.80
80335;BME280;69653;52.674;13.574;2023-04-24T15:31:49;99329.00;;;16.90;33.03
80335;BME280;69653;52.674;13.574;2023-04-24T15:34:25;99330.38;;;16.77;33.51
80335;BME280;69653;52.674;13.574;2023-04-24T15:36:51;99331.84;;;16.71;33.96
80335;BME280;69653;52.674;13.574;2023-04-24T15:39:17;99323.41;;;16.61;34.05
80335;BME280;69653;52.674;13.574;2023-04-24T15:41:47;99354.44;;;16.77;34.22
80335;BME280;69653;52.674;13.574;2023-04-24T15:44:17;99363.97;;;16.57;36.15
80335;BME280;69653;52.674;13.574;2023-04-24T15:46:47;99347.25;;;16.27;35.79
80335;BME280;69653;52.674;13.574;2023-04-24T15:49:17;99344.66;;;16.34;35.81
80335;BME280;69653;52.674;13.574;2023-04-24T15:51:50;99338.28;;;16.30;36.04
80335;BME280;69653;52.674;13.574;2023-04-24T15:54:17;99340.00;;;16.15;36.25
80335;BME280;69653;52.674;13.574;2023-04-24T15:56:44;99367.69;;;16.22;35.84
80335;BME280;69653;52.674;13.574;2023-04-24T15:59:10;99384.00;;;15.89;35.96
80335;BME280;69653;52.674;13.574;2023-04-24T16:01:37;99386.75;;;15.50;36.68
80335;BME280;69653;52.674;13.574;2023-04-24T16:04:02;99386.66;;;15.47;36.91
80335;BME280;69653;52.674;13.574;2023-04-24T16:06:30;99373.47;;;15.02;37.69
80335;BME280;69653;52.674;13.574;2023-04-24T16:08:57;99372.56;;;14.98;38.00
80335;BME280;69653;52.674;13.574;2023-04-24T16:11:23;99362.47;;;14.86;38.42
80335;BME280;69653;52.674;13.574;2023-04-24T16:13:50;99385.13;;;14.95;38.96
80335;BME280;69653;52.674;13.574;2023-04-24T16:16:17;99389.09;;;14.98;39.00
80335;BME280;69653;52.674;13.574;2023-04-24T16:18:43;99392.56;;;14.95;39.16
80335;BME280;69653;52.674;13.574;2023-04-24T16:21:10;99366.28;;;14.82;38.38
80335;BME280;69653;52.674;13.574;2023-04-24T16:23:37;99399.69;;;14.96;38.49
80335;BME280;69653;52.674;13.574;2023-04-24T16:26:03;99391.44;;;14.80;39.22
80335;BME280;69653;52.674;13.574;2023-04-24T16:28:29;99395.06;;;14.69;38.43
80335;BME280;69653;52.674;13.574;2023-04-24T16:30:55;99398.09;;;14.64;39.12
80335;BME280;69653;52.674;13.574;2023-04-24T16:33:20;99400.84;;;14.64;39.46
80335;BME280;69653;52.674;13.574;2023-04-24T16:35:46;99395.53;;;14.55;39.63
80335;BME280;69653;52.674;13.574;2023-04-24T16:38:11;99390.19;;;14.46;38.86
80335;BME280;69653;52.674;13.574;2023-04-24T16:40:37;99395.53;;;14.55;39.35
80335;BME280;69653;52.674;13.574;2023-04-24T16:43:02;99392.69;;;14.51;39.35
80335;BME280;69653;52.674;13.574;2023-04-24T16:45:27;99396.69;;;14.54;39.55
80335;BME280;69653;52.674;13.574;2023-04-24T16:47:53;99407.41;;;14.59;39.67
80335;BME280;69653;52.674;13.574;2023-04-24T16:50:18;99403.41;;;14.56;39.87
80335;BME280;69653;52.674;13.574;2023-04-24T16:52:43;99400.16;;;14.51;39.92
80335;BME280;69653;52.674;13.574;2023-04-24T16:55:09;99404.84;;;14.50;39.94
80335;BME280;69653;52.674;13.574;2023-04-24T16:57:34;99421.34;;;14.50;40.60
80335;BME280;69653;52.674;13.574;2023-04-24T17:00:00;99425.19;;;14.34;42.25
80335;BME280;69653;52.674;13.574;2023-04-24T17:02:25;99432.44;;;14.26;43.51
80335;BME280;69653;52.674;13.574;2023-04-24T17:04:50;99435.59;;;13.97;45.24
80335;BME280;69653;52.674;13.574;2023-04-24T17:07:16;99431.38;;;13.59;46.69
80335;BME280;69653;52.674;13.574;2023-04-24T17:09:41;99446.72;;;13.48;47.58
80335;BME280;69653;52.674;13.574;2023-04-24T17:12:07;99443.31;;;13.39;48.24
80335;BME280;69653;52.674;13.574;2023-04-24T17:14:32;99445.06;;;13.32;48.47
80335;BME280;69653;52.674;13.574;2023-04-24T17:16:57;99454.88;;;13.33;48.69
80335;BME280;69653;52.674;13.574;2023-04-24T17:19:23;99457.75;;;13.24;49.11
80335;BME280;69653;52.674;13.574;2023-04-24T17:21:49;99454.78;;;13.17;49.33
80335;BME280;69653;52.674;13.574;2023-04-24T17:24:15;99463.31;;;13.03;49.94
80335;BME280;69653;52.674;13.574;2023-04-24T17:26:40;99465.97;;;13.00;50.49
80335;BME280;69653;52.674;13.574;2023-04-24T17:29:05;99460.81;;;12.86;50.52
80335;BME280;69653;52.674;13.574;2023-04-24T17:31:31;99478.84;;;12.63;51.87
80335;BME280;69653;52.674;13.574;2023-04-24T17:33:56;99470.03;;;12.70;51.81
80335;BME280;69653;52.674;13.574;2023-04-24T17:36:23;99482.38;;;12.63;52.04
80335;BME280;69653;52.674;13.574;2023-04-24T17:38:48;99486.38;;;12.54;52.92
80335;BME280;69653;52.674;13.574;2023-04-24T17:41:13;99492.75;;;12.46;54.17
80335;BME280;69653;52.674;13.574;2023-04-24T17:43:41;99495.31;;;12.30;56.26
80335;BME280;69653;52.674;13.574;2023-04-24T17:46:06;99491.22;;;12.24;56.48
80335;BME280;69653;52.674;13.574;2023-04-24T17:48:32;99496.41;;;12.17;56.77
80335;BME280;69653;52.674;13.574;2023-04-24T17:50:58;99501.88;;;12.17;56.00
80335;BME280;69653;52.674;13.574;2023-04-24T17:53:24;99509.16;;;12.01;56.80
80335;BME280;69653;52.674;13.574;2023-04-24T17:55:49;99512.16;;;11.87;59.14
80335;BME280;69653;52.674;13.574;2023-04-24T17:58:15;99523.56;;;11.68;59.86
80335;BME280;69653;52.674;13.574;2023-04-24T18:00:40;99525.94;;;11.49;60.26
80335;BME280;69653;52.674;13.574;2023-04-24T18:03:07;99536.88;;;11.49;60.11
80335;BME280;69653;52.674;13.574;2023-04-24T18:05:34;99531.00;;;11.39;60.42
80335;BME280;69653;52.674;13.574;2023-04-24T18:08:00;99535.44;;;11.43;60.15
80335;BME280;69653;52.674;13.574;2023-04-24T18:10:29;99539.53;;;11.37;60.36
80335;BME280;69653;52.674;13.574;2023-04-24T18:12:55;99543.91;;;11.30;59.79
80335;BME280;69653;52.674;13.574;2023-04-24T18:17:46;99558.84;;;11.32;58.96
80335;BME280;69653;52.674;13.574;2023-04-24T18:20:13;99555.66;;;11.30;58.63
80335;BME280;69653;52.674;13.574;2023-04-24T18:22:39;99559.38;;;11.26;58.91
80335;BME280;69653;52.674;13.574;2023-04-24T18:25:05;99569.72;;;11.20;59.10
80335;BME280;69653;52.674;13.574;2023-04-24T18:27:31;99578.38;;;11.22;58.64
80335;BME280;69653;52.674;13.574;2023-04-24T18:29:56;99586.97;;;11.12;57.66
80335;BME280;69653;52.674;13.574;2023-04-24T18:32:22;99591.47;;;11.08;57.63
80335;BME280;69653;52.674;13.574;2023-04-24T18:34:48;99585.88;;;11.04;56.86
80335;BME280;69653;52.674;13.574;2023-04-24T18:37:13;99592.91;;;11.05;55.17
80335;BME280;69653;52.674;13.574;2023-04-24T18:39:39;99598.91;;;10.99;55.22
80335;BME280;69653;52.674;13.574;2023-04-24T18:42:04;99602.16;;;10.84;56.17
80335;BME280;69653;52.674;13.574;2023-04-24T18:44:30;99614.56;;;10.73;56.45
80335;BME280;69653;52.674;13.574;2023-04-24T18:46:55;99617.16;;;10.69;56.22
80335;BME280;69653;52.674;13.574;2023-04-24T18:49:21;99619.75;;;10.57;56.15
80335;BME280;69653;52.674;13.574;2023-04-24T18:51:46;99631.34;;;10.45;56.00
80335;BME280;69653;52.674;13.574;2023-04-24T18:54:11;99632.16;;;10.46;56.09
80335;BME280;69653;52.674;13.574;2023-04-24T18:56:36;99641.13;;;10.29;56.64
80335;BME280;69653;52.674;13.574;2023-04-24T18:59:02;99644.03;;;10.15;57.26
80335;BME280;69653;52.674;13.574;2023-04-24T19:01:30;99648.63;;;10.06;57.81
80335;BME280;69653;52.674;13.574;2023-04-24T19:03:57;99659.84;;;9.96;58.25
80335;BME280;69653;52.674;13.574;2023-04-24T19:06:23;99648.72;;;9.75;58.59
80335;BME280;69653;52.674;13.574;2023-04-24T19:08:48;99664.41;;;9.61;59.12
80335;BME280;69653;52.674;13.574;2023-04-24T19:11:14;99656.38;;;9.56;59.69
80335;BME280;69653;52.674;13.574;2023-04-24T19:13:40;99671.59;;;9.49;60.04
80335;BME280;69653;52.674;13.574;2023-04-24T19:16:06;99679.75;;;9.40;60.19
80335;BME280;69653;52.674;13.574;2023-04-24T19:18:31;99675.84;;;9.33;60.36
80335;BME280;69653;52.674;13.574;2023-04-24T19:20:56;99680.78;;;9.22;60.70
80335;BME280;69653;52.674;13.574;2023-04-24T19:23:24;99670.16;;;9.20;60.83
80335;BME280;69653;52.674;13.574;2023-04-24T19:25:49;99674.16;;;9.14;60.69
80335;BME280;69653;52.674;13.574;2023-04-24T19:28:14;99677.34;;;9.08;61.37
80335;BME280;69653;52.674;13.574;2023-04-24T19:30:40;99688.34;;;9.03;61.10
80335;BME280;69653;52.674;13.574;2023-04-24T19:33:05;99674.22;;;9.01;61.61
80335;BME280;69653;52.674;13.574;2023-04-24T19:35:31;99681.56;;;8.92;61.56
80335;BME280;69653;52.674;13.574;2023-04-24T19:37:59;99691.94;;;8.90;62.32
80335;BME280;69653;52.674;13.574;2023-04-24T19:40:24;99685.81;;;8.84;62.66
80335;BME280;69653;52.674;13.574;2023-04-24T19:42:49;99676.66;;;8.80;62.84
80335;BME280;69653;52.674;13.574;2023-04-24T19:45:15;99685.75;;;8.75;62.48
80335;BME280;69653;52.674;13.574;2023-04-24T19:47:40;99683.22;;;8.79;62.06
80335;BME280;69653;52.674;13.574;2023-04-24T19:50:06;99693.81;;;8.81;62.61
80335;BME280;69653;52.674;13.574;2023-04-24T19:52:31;99683.53;;;8.77;62.32
80335;BME280;69653;52.674;13.574;2023-04-24T19:54:57;99689.28;;;8.76;62.33
80335;BME280;69653;52.674;13.574;2023-04-24T19:57:22;99702.25;;;8.70;62.67
80335;BME280;69653;52.674;13.574;2023-04-24T19:59:47;99693.88;;;8.67;62.79
80335;BME280;69653;52.674;13.574;2023-04-24T20:02:13;99703.34;;;8.69;63.08
80335;BME280;69653;52.674;13.574;2023-04-24T20:04:38;99710.84;;;8.64;62.96
80335;BME280;69653;52.674;13.574;2023-04-24T20:07:03;99689.16;;;8.59;63.24
80335;BME280;69653;52.674;13.574;2023-04-24T20:09:29;99704.19;;;8.56;63.01
80335;BME280;69653;52.674;13.574;2023-04-24T20:11:54;99700.69;;;8.56;63.16
80335;BME280;69653;52.674;13.574;2023-04-24T20:14:21;99690.53;;;8.48;63.11
80335;BME280;69653;52.674;13.574;2023-04-24T20:16:46;99695.34;;;8.51;63.25
80335;BME280;69653;52.674;13.574;2023-04-24T20:19:11;99689.72;;;8.47;63.44
80335;BME280;69653;52.674;13.574;2023-04-24T20:21:37;99697.78;;;8.52;63.30
80335;BME280;69653;52.674;13.574;2023-04-24T20:24:02;99702.78;;;8.59;64.27
80335;BME280;69653;52.674;13.574;2023-04-24T20:26:28;99700.38;;;8.57;63.09
80335;BME280;69653;52.674;13.574;2023-04-24T20:28:53;99698.56;;;8.53;63.78
80335;BME280;69653;52.674;13.574;2023-04-24T20:31:19;99695.84;;;8.53;63.19
80335;BME280;69653;52.674;13.574;2023-04-24T20:33:44;99705.53;;;8.45;63.83
80335;BME280;69653;52.674;13.574;2023-04-24T20:36:10;99710.41;;;8.48;63.62
80335;BME280;69653;52.674;13.574;2023-04-24T20:38:36;99707.16;;;8.46;63.89
80335;BME280;69653;52.674;13.574;2023-04-24T20:41:01;99708.88;;;8.42;63.80
80335;BME280;69653;52.674;13.574;2023-04-24T20:43:27;99706.06;;;8.47;63.94
80335;BME280;69653;52.674;13.574;2023-04-24T20:45:53;99711.00;;;8.45;63.88
80335;BME280;69653;52.674;13.574;2023-04-24T20:48:18;99712.22;;;8.39;64.19
80335;BME280;69653;52.674;13.574;2023-04-24T20:50:43;99713.47;;;8.33;64.48
80335;BME280;69653;52.674;13.574;2023-04-24T20:53:09;99715.38;;;8.33;64.74
80335;BME280;69653;52.674;13.574;2023-04-24T20:55:34;99712.84;;;8.36;64.88
80335;BME280;69653;52.674;13.574;2023-04-24T20:58:00;99710.75;;;8.33;65.00
80335;BME280;69653;52.674;13.574;2023-04-24T21:00:27;99712.84;;;8.36;64.97
80335;BME280;69653;52.674;13.574;2023-04-24T21:02:53;99711.75;;;8.37;65.17
80335;BME280;69653;52.674;13.574;2023-04-24T21:05:18;99706.28;;;8.37;64.97
80335;BME280;69653;52.674;13.574;2023-04-24T21:07:43;99710.94;;;8.37;64.69
80335;BME280;69653;52.674;13.574;2023-04-24T21:10:09;99719.78;;;8.42;65.00
80335;BME280;69653;52.674;13.574;2023-04-24T21:12:36;99701.25;;;8.31;65.55
80335;BME280;69653;52.674;13.574;2023-04-24T21:15:02;99699.72;;;8.24;66.12
80335;BME280;69653;52.674;13.574;2023-04-24T21:17:27;99711.44;;;8.25;66.27
80335;BME280;69653;52.674;13.574;2023-04-24T21:19:52;99715.78;;;8.26;66.39
80335;BME280;69653;52.674;13.574;2023-04-24T21:22:20;99705.59;;;8.18;66.74
80335;BME280;69653;52.674;13.574;2023-04-24T21:24:46;99705.69;;;8.13;66.82
80335;BME280;69653;52.674;13.574;2023-04-24T21:27:12;99710.13;;;8.09;67.22
80335;BME280;69653;52.674;13.574;2023-04-24T21:29:37;99693.69;;;8.00;67.56
80335;BME280;69653;52.674;13.574;2023-04-24T21:32:03;99705.09;;;8.02;67.42
80335;BME280;69653;52.674;13.574;2023-04-24T21:34:28;99708.72;;;7.98;68.40
80335;BME280;69653;52.674;13.574;2023-04-24T21:36:54;99699.50;;;7.85;68.18
80335;BME280;69653;52.674;13.574;2023-04-24T21:39:19;99713.38;;;7.84;68.29
80335;BME280;69653;52.674;13.574;2023-04-24T21:41:45;99705.63;;;7.77;68.66
80335;BME280;69653;52.674;13.574;2023-04-24T21:44:11;99710.25;;;7.76;68.94
80335;BME280;69653;52.674;13.574;2023-04-24T21:46:36;99700.06;;;7.68;69.18
80335;BME280;69653;52.674;13.574;2023-04-24T21:49:01;99697.16;;;7.65;68.89
80335;BME280;69653;52.674;13.574;2023-04-24T21:51:27;99706.94;;;7.66;69.78
80335;BME280;69653;52.674;13.574;2023-04-24T21:53:52;99700.91;;;7.55;69.49
80335;BME280;69653;52.674;13.574;2023-04-24T21:56:17;99705.72;;;7.58;70.31
80335;BME280;69653;52.674;13.574;2023-04-24T21:58:44;99702.81;;;7.55;69.55
80335;BME280;69653;52.674;13.574;2023-04-24T22:01:09;99699.28;;;7.54;69.86
80335;BME280;69653;52.674;13.574;2023-04-24T22:03:36;99708.25;;;7.55;70.46
80335;BME280;69653;52.674;13.574;2023-04-24T22:06:01;99695.44;;;7.55;70.31
80335;BME280;69653;52.674;13.574;2023-04-24T22:08:26;99693.84;;;7.54;70.15
80335;BME280;69653;52.674;13.574;2023-04-24T22:10:52;99695.94;;;7.57;70.49
80335;BME280;69653;52.674;13.574;2023-04-24T22:13:18;99695.94;;;7.57;70.68
80335;BME280;69653;52.674;13.574;2023-04-24T22:15:43;99686.78;;;7.53;70.66
80335;BME280;69653;52.674;13.574;2023-04-24T22:18:09;99703.50;;;7.60;70.67
80335;BME280;69653;52.674;13.574;2023-04-24T22:20:36;99696.56;;;7.54;70.95
80335;BME280;69653;52.674;13.574;2023-04-24T22:23:01;99700.69;;;7.52;71.19
80335;BME280;69653;52.674;13.574;2023-04-24T22:25:27;99698.88;;;7.47;70.81
80335;BME280;69653;52.674;13.574;2023-04-24T22:27:53;99706.50;;;7.45;71.32
80335;BME280;69653;52.674;13.574;2023-04-24T22:30:18;99700.97;;;7.50;71.36
80335;BME280;69653;52.674;13.574;2023-04-24T22:32:43;99706.50;;;7.45;71.93
80335;BME280;69653;52.674;13.574;2023-04-24T22:35:09;99693.91;;;7.49;71.64
80335;BME280;69653;52.674;13.574;2023-04-24T22:37:34;99684.38;;;7.52;71.06
80335;BME280;69653;52.674;13.574;2023-04-24T22:40:00;99700.16;;;7.63;71.48
80335;BME280;69653;52.674;13.574;2023-04-24T22:42:27;99692.41;;;7.70;71.34
80335;BME280;69653;52.674;13.574;2023-04-24T22:44:52;99693.63;;;7.78;70.98
80335;BME280;69653;52.674;13.574;2023-04-24T22:47:18;99683.72;;;7.82;71.03
80335;BME280;69653;52.674;13.574;2023-04-24T22:49:44;99685.56;;;7.87;71.25
80335;BME280;69653;52.674;13.574;2023-04-24T22:52:10;99691.38;;;7.94;70.96
80335;BME280;69653;52.674;13.574;2023-04-24T22:54:37;99691.09;;;7.95;70.94
80335;BME280;69653;52.674;13.574;2023-04-24T22:57:03;99692.19;;;7.94;71.14
80335;BME280;69653;52.674;13.574;2023-04-24T22:59:28;99696.63;;;7.90;71.17
80335;BME280;69653;52.674;13.574;2023-04-24T23:01:54;99692.81;;;7.91;71.52
80335;BME280;69653;52.674;13.574;2023-04-24T23:04:20;99683.94;;;7.86;71.97
80335;BME280;69653;52.674;13.574;2023-04-24T23:06:46;99686.97;;;7.84;70.96
80335;BME280;69653;52.674;13.574;2023-04-24T23:09:11;99685.44;;;7.78;70.86
80335;BME280;69653;52.674;13.574;2023-04-24T23:11:36;99688.69;;;7.80;71.09
80335;BME280;69653;52.674;13.574;2023-04-24T23:14:02;99696.13;;;7.74;71.50
80335;BME280;69653;52.674;13.574;2023-04-24T23:16:27;99693.81;;;7.68;71.15
80335;BME280;69653;52.674;13.574;2023-04-24T23:18:55;99677.19;;;7.56;71.86
80335;BME280;69653;52.674;13.574;2023-04-24T23:21:20;99682.44;;;7.52;71.67
80335;BME280;69653;52.674;13.574;2023-04-24T23:23:47;99689.91;;;7.47;71.99
80335;BME280;69653;52.674;13.574;2023-04-24T23:26:14;99675.00;;;7.44;71.38
80335;BME280;69653;52.674;13.574;2023-04-24T23:28:40;99680.94;;;7.46;71.67
80335;BME280;69653;52.674;13.574;2023-04-24T23:31:05;99691.81;;;7.46;71.45
80335;BME280;69653;52.674;13.574;2023-04-24T23:33:31;99681.81;;;7.42;71.50
80335;BME280;69653;52.674;13.574;2023-04-24T23:35:56;99691.31;;;7.44;71.80
80335;BME280;69653;52.674;13.574;2023-04-24T23:38:22;99681.00;;;7.41;71.08
80335;BME280;69653;52.674;13.574;2023-04-24T23:40:48;99679.50;;;7.49;71.29
80335;BME280;69653;52.674;13.574;2023-04-24T23:43:16;99680.31;;;7.49;71.29
80335;BME280;69653;52.674;13.574;2023-04-24T23:45:41;99686.97;;;7.57;72.10
80335;BME280;69653;52.674;13.574;2023-04-24T23:48:06;99683.44;;;7.56;71.99
80335;BME280;69653;52.674;13.574;2023-04-24T23:50:32;99677.19;;;7.56;72.09
80335;BME280;69653;52.674;13.574;2023-04-24T23:52:57;99676.91;;;7.57;72.10
80335;BME280;69653;52.674;13.574;2023-04-24T23:55:23;99680.72;;;7.56;73.13
80335;BME280;69653;52.674;13.574;2023-04-24T23:57:48;99677.00;;;7.52;72.37
